sensor_id;sensor_type;location;lat;lon;timestamp;temperature;humidity
3416;DHT22;1721;51.238;9.562;2023-06-22T00:00:42;20.40;99.90
3416;DHT22;1721;51.238;9.562;2023-06-22T00:03:09;20.40;99.90
3416;DHT22;1721;51.238;9.562;2023-06-22T00:05:34;20.40;99.90
3416;DHT22;1721;51.238;9.562;2023-06-22T00:08:03;20.30;99.90
3416;DHT22;1721;51.238;9.562;2023-06-22T00:10:30;20.40;99.90
3416;DHT22;1721;51.238;9.562;2023-06-22T00:12:55;20.20;99.90
3416;DHT22;1721;51.238;9.562;2023-06-22T00:15:21;20.20;99.90
3416;DHT22;1721;51.238;9.562;2023-06-22T00:17:47;20.20;99.90
3416;DHT22;1721;51.238;9.562;2023-06-22T00:20:12;20.20;99.90
3416;DHT22;1721;51.238;9.562;2023-06-22T00:22:40;20.20;99.90
3416;DHT22;1721;51.238;9.562;2023-06-22T00:25:09;20.20;99.90
3416;DHT22;1721;51.238;9.562;2023-06-22T00:27:35;20.20;99.90
3416;DHT22;1721;51.238;9.562;2023-06-22T00:30:01;20.20;99.90
3416;DHT22;1721;51.238;9.562;2023-06-22T00:32:26;20.20;99.90
3416;DHT22;1721;51.238;9.562;2023-06-22T00:34:52;20.10;99.90
3416;DHT22;1721;51.238;9.562;2023-06-22T00:37:18;20.10;99.90
3416;DHT22;1721;51.238;9.562;2023-06-22T00:39:43;20.10;99.90
3416;DHT22;1721;51.238;9.562;2023-06-22T00:42:09;20.00;99.90
3416;DHT22;1721;51.238;9.562;2023-06-22T00:44:35;19.90;99.90
3416;DHT22;1721;51.238;9.562;2023-06-22T00:47:02;20.00;99.90
3416;DHT22;1721;51.238;9.562;2023-06-22T00:49:29;19.80;99.90
3416;DHT22;1721;51.238;9.562;2023-06-22T00:51:56;19.80;99.90
3416;DHT22;1721;51.238;9.562;2023-06-22T00:54:22;19.60;99.90
3416;DHT22;1721;51.238;9.562;2023-06-22T00:56:53;19.50;99.90
3416;DHT22;1721;51.238;9.562;2023-06-22T00:59:21;19.30;99.90
3416;DHT22;1721;51.238;9.562;2023-06-22T01:01:47;19.30;99.90
3416;DHT22;1721;51.238;9.562;2023-06-22T01:04:13;19.40;99.90
3416;DHT22;1721;51.238;9.562;2023-06-22T01:06:45;19.40;99.90
3416;DHT22;1721;51.238;9.562;2023-06-22T01:09:15;19.40;99.90
3416;DHT22;1721;51.238;9.562;2023-06-22T01:11:53;19.40;99.90
3416;DHT22;1721;51.238;9.562;2023-06-22T01:14:28;19.40;99.90
3416;DHT22;1721;51.238;9.562;2023-06-22T01:16:57;19.40;99.90
3416;DHT22;1721;51.238;9.562;2023-06-22T01:22:03;19.50;99.90
3416;DHT22;1721;51.238;9.562;2023-06-22T01:24:33;19.50;99.90
3416;DHT22;1721;51.238;9.562;2023-06-22T01:29:57;19.40;99.90
3416;DHT22;1721;51.238;9.562;2023-06-22T01:32:35;19.40;99.90
3416;DHT22;1721;51.238;9.562;2023-06-22T01:35:05;19.30;99.90
3416;DHT22;1721;51.238;9.562;2023-06-22T01:37:32;19.30;99.90
3416;DHT22;1721;51.238;9.562;2023-06-22T01:39:59;19.40;99.90
3416;DHT22;1721;51.238;9.562;2023-06-22T01:42:25;19.50;99.90
3416;DHT22;1721;51.238;9.562;2023-06-22T01:44:54;19.40;99.90
3416;DHT22;1721;51.238;9.562;2023-06-22T01:47:22;19.50;99.90
3416;DHT22;1721;51.238;9.562;2023-06-22T01:49:48;19.50;99.90
3416;DHT22;1721;51.238;9.562;2023-06-22T01:52:15;19.50;99.90
3416;DHT22;1721;51.238;9.562;2023-06-22T01:54:41;19.50;99.90
3416;DHT22;1721;51.238;9.562;2023-06-22T01:57:07;19.60;99.90
3416;DHT22;1721;51.238;9.562;2023-06-22T02:02:24;19.70;99.90
3416;DHT22;1721;51.238;9.562;2023-06-22T02:04:58;19.70;99.90
3416;DHT22;1721;51.238;9.562;2023-06-22T02:07:29;19.80;99.90
3416;DHT22;1721;51.238;9.562;2023-06-22T02:09:58;19.60;99.90
3416;DHT22;1721;51.238;9.562;2023-06-22T02:12:25;19.60;99.90
3416;DHT22;1721;51.238;9.562;2023-06-22T02:14:53;19.50;99.90
3416;DHT22;1721;51.238;9.562;2023-06-22T02:17:19;19.40;99.90
3416;DHT22;1721;51.238;9.562;2023-06-22T02:19:46;19.30;99.90
3416;DHT22;1721;51.238;9.562;2023-06-22T02:22:11;19.40;99.90
3416;DHT22;1721;51.238;9.562;2023-06-22T02:24:41;19.50;99.90
3416;DHT22;1721;51.238;9.562;2023-06-22T02:27:07;19.70;99.90
3416;DHT22;1721;51.238;9.562;2023-06-22T02:29:33;19.80;99.90
3416;DHT22;1721;51.238;9.562;2023-06-22T02:31:58;19.80;99.90
3416;DHT22;1721;51.238;9.562;2023-06-22T02:34:25;19.80;99.90
3416;DHT22;1721;51.238;9.562;2023-06-22T02:36:52;19.80;99.90
3416;DHT22;1721;51.238;9.562;2023-06-22T02:39:22;19.90;99.90
3416;DHT22;1721;51.238;9.562;2023-06-22T02:41:50;19.80;99.90
3416;DHT22;1721;51.238;9.562;2023-06-22T02:44:16;19.90;99.90
3416;DHT22;1721;51.238;9.562;2023-06-22T02:46:42;19.70;99.90
3416;DHT22;1721;51.238;9.562;2023-06-22T02:49:08;19.60;99.90
3416;DHT22;1721;51.238;9.562;2023-06-22T02:51:34;19.70;99.90
3416;DHT22;1721;51.238;9.562;2023-06-22T02:54:02;19.80;99.90
3416;DHT22;1721;51.238;9.562;2023-06-22T02:56:28;19.90;99.90
3416;DHT22;1721;51.238;9.562;2023-06-22T02:58:55;20.00;99.90
3416;DHT22;1721;51.238;9.562;2023-06-22T03:01:27;20.10;99.90
3416;DHT22;1721;51.238;9.562;2023-06-22T03:03:53;20.20;99.90
3416;DHT22;1721;51.238;9.562;2023-06-22T03:06:21;20.20;99.90
3416;DHT22;1721;51.238;9.562;2023-06-22T03:08:59;20.20;99.90
3416;DHT22;1721;51.238;9.562;2023-06-22T03:11:25;20.20;99.90
3416;DHT22;1721;51.238;9.562;2023-06-22T03:13:51;20.20;99.90
3416;DHT22;1721;51.238;9.562;2023-06-22T03:16:18;20.20;99.90
3416;DHT22;1721;51.238;9.562;2023-06-22T03:18:44;20.30;99.90
3416;DHT22;1721;51.238;9.562;2023-06-22T03:21:10;20.30;99.90
3416;DHT22;1721;51.238;9.562;2023-06-22T03:23:35;20.40;99.90
3416;DHT22;1721;51.238;9.562;2023-06-22T03:26:02;20.40;99.90
3416;DHT22;1721;51.238;9.562;2023-06-22T03:28:27;20.50;99.90
3416;DHT22;1721;51.238;9.562;2023-06-22T03:30:54;20.50;99.90
3416;DHT22;1721;51.238;9.562;2023-06-22T03:33:20;20.60;99.90
3416;DHT22;1721;51.238;9.562;2023-06-22T03:35:45;20.40;99.90
3416;DHT22;1721;51.238;9.562;2023-06-22T03:38:11;20.40;99.90
3416;DHT22;1721;51.238;9.562;2023-06-22T03:40:37;20.40;99.90
3416;DHT22;1721;51.238;9.562;2023-06-22T03:43:02;20.50;99.90
3416;DHT22;1721;51.238;9.562;2023-06-22T03:45:28;20.40;99.90
3416;DHT22;1721;51.238;9.562;2023-06-22T03:47:53;20.50;99.90
3416;DHT22;1721;51.238;9.562;2023-06-22T03:50:19;20.60;99.90
3416;DHT22;1721;51.238;9.562;2023-06-22T03:52:46;20.60;99.90
3416;DHT22;1721;51.238;9.562;2023-06-22T03:55:11;20.50;99.90
3416;DHT22;1721;51.238;9.562;2023-06-22T03:57:38;20.50;99.90
3416;DHT22;1721;51.238;9.562;2023-06-22T04:00:04;20.60;99.90
3416;DHT22;1721;51.238;9.562;2023-06-22T04:02:33;20.60;99.90
3416;DHT22;1721;51.238;9.562;2023-06-22T04:04:59;20.60;99.90
3416;DHT22;1721;51.238;9.562;2023-06-22T04:07:24;20.60;99.90
3416;DHT22;1721;51.238;9.562;2023-06-22T04:09:51;20.60;99.90
3416;DHT22;1721;51.238;9.562;2023-06-22T04:12:16;20.60;99.90
3416;DHT22;1721;51.238;9.562;2023-06-22T04:14:42;20.60;99.90
3416;DHT22;1721;51.238;9.562;2023-06-22T04:17:08;20.60;99.90
3416;DHT22;1721;51.238;9.562;2023-06-22T04:19:33;20.70;99.90
3416;DHT22;1721;51.238;9.562;2023-06-22T04:21:59;20.70;99.90
3416;DHT22;1721;51.238;9.562;2023-06-22T04:24:24;20.70;99.90
3416;DHT22;1721;51.238;9.562;2023-06-22T04:26:50;20.70;99.90
3416;DHT22;1721;51.238;9.562;2023-06-22T04:29:21;20.70;99.90
3416;DHT22;1721;51.238;9.562;2023-06-22T04:31:54;20.70;99.90
3416;DHT22;1721;51.238;9.562;2023-06-22T04:34:21;20.70;99.90
3416;DHT22;1721;51.238;9.562;2023-06-22T04:36:46;20.70;99.90
3416;DHT22;1721;51.238;9.562;2023-06-22T04:39:12;20.70;99.90
3416;DHT22;1721;51.238;9.562;2023-06-22T04:41:39;20.70;99.90
3416;DHT22;1721;51.238;9.562;2023-06-22T04:44:18;20.70;99.90
3416;DHT22;1721;51.238;9.562;2023-06-22T04:46:54;20.60;99.90
3416;DHT22;1721;51.238;9.562;2023-06-22T04:49:26;20.70;99.90
3416;DHT22;1721;51.238;9.562;2023-06-22T04:51:58;20.70;99.90
3416;DHT22;1721;51.238;9.562;2023-06-22T04:54:24;20.70;99.90
3416;DHT22;1721;51.238;9.562;2023-06-22T04:56:50;20.70;99.90
3416;DHT22;1721;51.238;9.562;2023-06-22T04:59:28;20.70;99.90
3416;DHT22;1721;51.238;9.562;2023-06-22T05:01:59;20.80;99.90
3416;DHT22;1721;51.238;9.562;2023-06-22T05:04:26;20.80;99.90
3416;DHT22;1721;51.238;9.562;2023-06-22T05:06:54;20.90;99.90
3416;DHT22;1721;51.238;9.562;2023-06-22T05:09:20;21.00;99.90
3416;DHT22;1721;51.238;9.562;2023-06-22T05:11:46;21.00;99.90
3416;DHT22;1721;51.238;9.562;2023-06-22T05:14:12;21.10;99.90
3416;DHT22;1721;51.238;9.562;2023-06-22T05:16:40;21.10;99.90
3416;DHT22;1721;51.238;9.562;2023-06-22T05:19:06;21.20;99.90
3416;DHT22;1721;51.238;9.562;2023-06-22T05:21:32;21.30;99.90
3416;DHT22;1721;51.238;9.562;2023-06-22T05:23:57;21.30;99.90
3416;DHT22;1721;51.238;9.562;2023-06-22T05:26:27;21.40;99.90
3416;DHT22;1721;51.238;9.562;2023-06-22T05:28:53;21.50;99.90
3416;DHT22;1721;51.238;9.562;2023-06-22T05:31:20;21.60;99.90
3416;DHT22;1721;51.238;9.562;2023-06-22T05:33:46;21.80;99.90
3416;DHT22;1721;51.238;9.562;2023-06-22T05:36:12;21.90;99.90
3416;DHT22;1721;51.238;9.562;2023-06-22T05:38:38;22.00;99.90
3416;DHT22;1721;51.238;9.562;2023-06-22T05:41:04;22.20;99.90
3416;DHT22;1721;51.238;9.562;2023-06-22T05:43:30;22.20;99.90
3416;DHT22;1721;51.238;9.562;2023-06-22T05:45:56;22.30;99.90
3416;DHT22;1721;51.238;9.562;2023-06-22T05:48:21;22.60;99.90
3416;DHT22;1721;51.238;9.562;2023-06-22T05:50:47;22.80;99.90
3416;DHT22;1721;51.238;9.562;2023-06-22T05:53:13;22.80;99.90
3416;DHT22;1721;51.238;9.562;2023-06-22T05:55:38;22.80;99.90
3416;DHT22;1721;51.238;9.562;2023-06-22T05:58:04;22.90;99.90
3416;DHT22;1721;51.238;9.562;2023-06-22T06:00:30;23.10;99.90
3416;DHT22;1721;51.238;9.562;2023-06-22T06:02:56;23.10;99.90
3416;DHT22;1721;51.238;9.562;2023-06-22T06:05:22;23.20;99.90
3416;DHT22;1721;51.238;9.562;2023-06-22T06:07:49;23.20;99.90
3416;DHT22;1721;51.238;9.562;2023-06-22T06:10:15;23.30;99.90
3416;DHT22;1721;51.238;9.562;2023-06-22T06:12:40;23.30;99.90
3416;DHT22;1721;51.238;9.562;2023-06-22T06:15:06;23.30;99.90
3416;DHT22;1721;51.238;9.562;2023-06-22T06:17:32;23.30;99.90
3416;DHT22;1721;51.238;9.562;2023-06-22T06:19:59;23.20;99.90
3416;DHT22;1721;51.238;9.562;2023-06-22T06:22:26;23.30;99.90
3416;DHT22;1721;51.238;9.562;2023-06-22T06:24:52;23.30;99.90
3416;DHT22;1721;51.238;9.562;2023-06-22T06:27:17;23.40;99.90
3416;DHT22;1721;51.238;9.562;2023-06-22T06:29:45;23.50;99.90
3416;DHT22;1721;51.238;9.562;2023-06-22T06:32:15;23.70;99.90
3416;DHT22;1721;51.238;9.562;2023-06-22T06:34:41;23.80;99.90
3416;DHT22;1721;51.238;9.562;2023-06-22T06:37:06;23.80;99.90
3416;DHT22;1721;51.238;9.562;2023-06-22T06:39:32;24.00;99.90
3416;DHT22;1721;51.238;9.562;2023-06-22T06:41:57;24.00;99.90
3416;DHT22;1721;51.238;9.562;2023-06-22T06:44:23;24.10;99.90
3416;DHT22;1721;51.238;9.562;2023-06-22T06:46:48;24.10;99.90
3416;DHT22;1721;51.238;9.562;2023-06-22T06:49:14;24.10;99.90
3416;DHT22;1721;51.238;9.562;2023-06-22T06:51:39;24.10;99.90
3416;DHT22;1721;51.238;9.562;2023-06-22T06:54:06;24.00;99.90
3416;DHT22;1721;51.238;9.562;2023-06-22T06:56:31;23.90;99.90
3416;DHT22;1721;51.238;9.562;2023-06-22T06:58:58;23.90;99.90
3416;DHT22;1721;51.238;9.562;2023-06-22T07:01:24;23.90;99.90
3416;DHT22;1721;51.238;9.562;2023-06-22T07:03:49;23.90;99.90
3416;DHT22;1721;51.238;9.562;2023-06-22T07:06:15;23.90;99.90
3416;DHT22;1721;51.238;9.562;2023-06-22T07:08:41;24.00;99.90
3416;DHT22;1721;51.238;9.562;2023-06-22T07:11:08;23.90;99.80
3416;DHT22;1721;51.238;9.562;2023-06-22T07:13:33;24.00;99.90
3416;DHT22;1721;51.238;9.562;2023-06-22T07:15:59;24.00;99.90
3416;DHT22;1721;51.238;9.562;2023-06-22T07:18:24;24.10;99.90
3416;DHT22;1721;51.238;9.562;2023-06-22T07:20:51;24.50;99.90
3416;DHT22;1721;51.238;9.562;2023-06-22T07:23:17;25.00;99.90
3416;DHT22;1721;51.238;9.562;2023-06-22T07:25:43;25.40;99.70
3416;DHT22;1721;51.238;9.562;2023-06-22T07:28:08;25.80;98.90
3416;DHT22;1721;51.238;9.562;2023-06-22T07:30:34;26.30;98.00
3416;DHT22;1721;51.238;9.562;2023-06-22T07:33:01;26.60;96.70
3416;DHT22;1721;51.238;9.562;2023-06-22T07:35:30;26.70;96.70
3416;DHT22;1721;51.238;9.562;2023-06-22T07:37:56;27.00;96.50
3416;DHT22;1721;51.238;9.562;2023-06-22T07:40:21;27.20;96.50
3416;DHT22;1721;51.238;9.562;2023-06-22T07:42:47;27.20;95.00
3416;DHT22;1721;51.238;9.562;2023-06-22T07:45:13;27.00;95.20
3416;DHT22;1721;51.238;9.562;2023-06-22T07:47:39;26.90;95.60
3416;DHT22;1721;51.238;9.562;2023-06-22T07:50:05;26.80;95.80
3416;DHT22;1721;51.238;9.562;2023-06-22T07:52:31;26.80;96.20
3416;DHT22;1721;51.238;9.562;2023-06-22T07:54:57;26.60;96.00
3416;DHT22;1721;51.238;9.562;2023-06-22T07:57:23;26.70;95.90
3416;DHT22;1721;51.238;9.562;2023-06-22T07:59:48;26.70;96.20
3416;DHT22;1721;51.238;9.562;2023-06-22T08:02:15;26.60;97.00
3416;DHT22;1721;51.238;9.562;2023-06-22T08:04:41;26.60;97.00
3416;DHT22;1721;51.238;9.562;2023-06-22T08:07:07;26.50;96.50
3416;DHT22;1721;51.238;9.562;2023-06-22T08:09:33;26.30;96.30
3416;DHT22;1721;51.238;9.562;2023-06-22T08:11:58;26.40;96.10
3416;DHT22;1721;51.238;9.562;2023-06-22T08:14:29;26.40;95.90
3416;DHT22;1721;51.238;9.562;2023-06-22T08:16:55;26.30;95.70
3416;DHT22;1721;51.238;9.562;2023-06-22T08:19:20;26.30;96.80
3416;DHT22;1721;51.238;9.562;2023-06-22T08:21:46;26.30;96.60
3416;DHT22;1721;51.238;9.562;2023-06-22T08:24:11;26.30;96.60
3416;DHT22;1721;51.238;9.562;2023-06-22T08:26:37;26.30;96.70
3416;DHT22;1721;51.238;9.562;2023-06-22T08:29:03;26.50;96.30
3416;DHT22;1721;51.238;9.562;2023-06-22T08:31:31;26.60;96.20
3416;DHT22;1721;51.238;9.562;2023-06-22T08:34:00;26.60;96.30
3416;DHT22;1721;51.238;9.562;2023-06-22T08:36:26;26.70;96.80
3416;DHT22;1721;51.238;9.562;2023-06-22T08:38:54;26.70;95.70
3416;DHT22;1721;51.238;9.562;2023-06-22T08:41:26;26.80;95.60
3416;DHT22;1721;51.238;9.562;2023-06-22T08:43:52;26.90;95.20
3416;DHT22;1721;51.238;9.562;2023-06-22T08:46:19;26.90;95.10
3416;DHT22;1721;51.238;9.562;2023-06-22T08:48:48;26.90;95.60
3416;DHT22;1721;51.238;9.562;2023-06-22T08:51:14;27.00;96.00
3416;DHT22;1721;51.238;9.562;2023-06-22T08:53:40;27.00;96.80
3416;DHT22;1721;51.238;9.562;2023-06-22T08:56:05;26.80;97.30
3416;DHT22;1721;51.238;9.562;2023-06-22T08:58:31;26.90;97.00
3416;DHT22;1721;51.238;9.562;2023-06-22T09:00:56;27.00;96.60
3416;DHT22;1721;51.238;9.562;2023-06-22T09:03:22;27.20;96.20
3416;DHT22;1721;51.238;9.562;2023-06-22T09:05:51;27.40;95.70
3416;DHT22;1721;51.238;9.562;2023-06-22T09:08:17;27.60;95.60
3416;DHT22;1721;51.238;9.562;2023-06-22T09:10:42;27.80;95.20
3416;DHT22;1721;51.238;9.562;2023-06-22T09:13:08;27.90;95.10
3416;DHT22;1721;51.238;9.562;2023-06-22T09:15:33;27.80;94.80
3416;DHT22;1721;51.238;9.562;2023-06-22T09:18:00;27.40;93.20
3416;DHT22;1721;51.238;9.562;2023-06-22T09:20:26;27.40;92.30
3416;DHT22;1721;51.238;9.562;2023-06-22T09:22:51;27.40;91.90
3416;DHT22;1721;51.238;9.562;2023-06-22T09:25:17;27.30;92.00
3416;DHT22;1721;51.238;9.562;2023-06-22T09:27:46;27.60;91.90
3416;DHT22;1721;51.238;9.562;2023-06-22T09:30:11;27.70;93.30
3416;DHT22;1721;51.238;9.562;2023-06-22T09:32:37;28.00;91.20
3416;DHT22;1721;51.238;9.562;2023-06-22T09:35:04;28.10;91.10
3416;DHT22;1721;51.238;9.562;2023-06-22T09:37:34;28.10;89.70
3416;DHT22;1721;51.238;9.562;2023-06-22T09:40:00;27.90;90.50
3416;DHT22;1721;51.238;9.562;2023-06-22T09:42:26;27.90;90.80
3416;DHT22;1721;51.238;9.562;2023-06-22T09:44:51;28.30;92.70
3416;DHT22;1721;51.238;9.562;2023-06-22T09:47:17;28.60;88.10
3416;DHT22;1721;51.238;9.562;2023-06-22T09:49:42;28.30;86.20
3416;DHT22;1721;51.238;9.562;2023-06-22T09:52:08;28.20;86.80
3416;DHT22;1721;51.238;9.562;2023-06-22T09:54:33;28.10;88.60
3416;DHT22;1721;51.238;9.562;2023-06-22T09:56:59;28.00;87.80
3416;DHT22;1721;51.238;9.562;2023-06-22T09:59:24;28.00;86.50
3416;DHT22;1721;51.238;9.562;2023-06-22T10:01:50;28.10;88.60
3416;DHT22;1721;51.238;9.562;2023-06-22T10:04:16;28.10;89.20
3416;DHT22;1721;51.238;9.562;2023-06-22T10:06:41;28.50;87.30
3416;DHT22;1721;51.238;9.562;2023-06-22T10:09:07;28.60;87.90
3416;DHT22;1721;51.238;9.562;2023-06-22T10:11:33;28.60;88.30
3416;DHT22;1721;51.238;9.562;2023-06-22T10:14:00;28.80;87.60
3416;DHT22;1721;51.238;9.562;2023-06-22T10:16:32;28.90;87.10
3416;DHT22;1721;51.238;9.562;2023-06-22T10:18:59;29.00;85.20
3416;DHT22;1721;51.238;9.562;2023-06-22T10:21:24;28.80;87.80
3416;DHT22;1721;51.238;9.562;2023-06-22T10:23:52;28.60;85.80
3416;DHT22;1721;51.238;9.562;2023-06-22T10:26:17;28.80;86.00
3416;DHT22;1721;51.238;9.562;2023-06-22T10:28:43;28.90;83.00
3416;DHT22;1721;51.238;9.562;2023-06-22T10:31:09;29.20;82.60
3416;DHT22;1721;51.238;9.562;2023-06-22T10:33:34;29.30;82.30
3416;DHT22;1721;51.238;9.562;2023-06-22T10:36:00;29.00;85.90
3416;DHT22;1721;51.238;9.562;2023-06-22T10:38:25;28.80;85.40
3416;DHT22;1721;51.238;9.562;2023-06-22T10:40:51;28.70;83.60
3416;DHT22;1721;51.238;9.562;2023-06-22T10:43:16;28.90;83.70
3416;DHT22;1721;51.238;9.562;2023-06-22T10:45:42;29.10;83.70
3416;DHT22;1721;51.238;9.562;2023-06-22T10:48:07;29.10;82.10
3416;DHT22;1721;51.238;9.562;2023-06-22T10:50:33;29.10;80.90
3416;DHT22;1721;51.238;9.562;2023-06-22T10:52:59;29.20;81.20
3416;DHT22;1721;51.238;9.562;2023-06-22T10:55:25;29.40;79.10
3416;DHT22;1721;51.238;9.562;2023-06-22T10:57:51;29.30;79.70
3416;DHT22;1721;51.238;9.562;2023-06-22T11:00:17;29.50;79.60
3416;DHT22;1721;51.238;9.562;2023-06-22T11:02:43;29.30;77.60
3416;DHT22;1721;51.238;9.562;2023-06-22T11:05:09;29.10;77.80
3416;DHT22;1721;51.238;9.562;2023-06-22T11:07:35;29.00;78.60
3416;DHT22;1721;51.238;9.562;2023-06-22T11:10:00;28.90;79.40
3416;DHT22;1721;51.238;9.562;2023-06-22T11:12:26;28.70;77.50
3416;DHT22;1721;51.238;9.562;2023-06-22T11:14:51;28.50;78.90
3416;DHT22;1721;51.238;9.562;2023-06-22T11:17:17;28.70;80.60
3416;DHT22;1721;51.238;9.562;2023-06-22T11:19:44;28.80;78.70
3416;DHT22;1721;51.238;9.562;2023-06-22T11:22:10;28.90;76.60
3416;DHT22;1721;51.238;9.562;2023-06-22T11:24:35;28.90;79.60
3416;DHT22;1721;51.238;9.562;2023-06-22T11:27:02;29.20;76.60
3416;DHT22;1721;51.238;9.562;2023-06-22T11:29:28;29.00;78.10
3416;DHT22;1721;51.238;9.562;2023-06-22T11:31:53;28.80;76.40
3416;DHT22;1721;51.238;9.562;2023-06-22T11:34:19;28.70;80.30
3416;DHT22;1721;51.238;9.562;2023-06-22T11:36:45;29.00;78.50
3416;DHT22;1721;51.238;9.562;2023-06-22T11:39:11;28.90;77.60
3416;DHT22;1721;51.238;9.562;2023-06-22T11:41:37;28.80;79.50
3416;DHT22;1721;51.238;9.562;2023-06-22T11:44:03;28.50;78.60
3416;DHT22;1721;51.238;9.562;2023-06-22T11:46:29;28.60;77.80
3416;DHT22;1721;51.238;9.562;2023-06-22T11:48:55;28.70;78.90
3416;DHT22;1721;51.238;9.562;2023-06-22T11:51:21;28.40;78.00
3416;DHT22;1721;51.238;9.562;2023-06-22T11:53:46;28.50;80.20
3416;DHT22;1721;51.238;9.562;2023-06-22T11:56:12;28.50;76.70
3416;DHT22;1721;51.238;9.562;2023-06-22T11:58:37;28.50;78.90
3416;DHT22;1721;51.238;9.562;2023-06-22T12:01:03;28.50;77.30
3416;DHT22;1721;51.238;9.562;2023-06-22T12:03:28;28.50;78.30
3416;DHT22;1721;51.238;9.562;2023-06-22T12:05:55;29.00;78.30
3416;DHT22;1721;51.238;9.562;2023-06-22T12:08:21;29.40;77.40
3416;DHT22;1721;51.238;9.562;2023-06-22T12:10:46;29.30;78.10
3416;DHT22;1721;51.238;9.562;2023-06-22T12:13:13;29.10;78.20
3416;DHT22;1721;51.238;9.562;2023-06-22T12:15:39;29.00;79.00
3416;DHT22;1721;51.238;9.562;2023-06-22T12:18:05;29.30;81.30
3416;DHT22;1721;51.238;9.562;2023-06-22T12:20:30;29.50;79.00
3416;DHT22;1721;51.238;9.562;2023-06-22T12:22:57;29.30;80.60
3416;DHT22;1721;51.238;9.562;2023-06-22T12:25:23;29.30;80.50
3416;DHT22;1721;51.238;9.562;2023-06-22T12:27:49;29.10;79.50
3416;DHT22;1721;51.238;9.562;2023-06-22T12:30:16;28.90;81.10
3416;DHT22;1721;51.238;9.562;2023-06-22T12:32:42;28.90;82.30
3416;DHT22;1721;51.238;9.562;2023-06-22T12:35:09;29.30;81.80
3416;DHT22;1721;51.238;9.562;2023-06-22T12:37:42;29.40;81.30
3416;DHT22;1721;51.238;9.562;2023-06-22T12:40:08;29.50;80.30
3416;DHT22;1721;51.238;9.562;2023-06-22T12:42:35;29.50;82.20
3416;DHT22;1721;51.238;9.562;2023-06-22T12:45:02;29.60;82.20
3416;DHT22;1721;51.238;9.562;2023-06-22T12:47:28;29.70;83.60
3416;DHT22;1721;51.238;9.562;2023-06-22T12:49:53;29.90;83.60
3416;DHT22;1721;51.238;9.562;2023-06-22T12:52:19;29.90;81.60
3416;DHT22;1721;51.238;9.562;2023-06-22T12:54:44;29.60;82.70
3416;DHT22;1721;51.238;9.562;2023-06-22T12:57:10;29.60;81.50
3416;DHT22;1721;51.238;9.562;2023-06-22T12:59:36;29.40;83.00
3416;DHT22;1721;51.238;9.562;2023-06-22T13:02:01;29.60;81.90
3416;DHT22;1721;51.238;9.562;2023-06-22T13:04:27;29.50;82.70
3416;DHT22;1721;51.238;9.562;2023-06-22T13:06:52;29.90;81.60
3416;DHT22;1721;51.238;9.562;2023-06-22T13:09:18;30.10;82.20
3416;DHT22;1721;51.238;9.562;2023-06-22T13:11:46;30.20;84.50
3416;DHT22;1721;51.238;9.562;2023-06-22T13:14:11;30.40;80.70
3416;DHT22;1721;51.238;9.562;2023-06-22T13:16:37;30.30;83.10
3416;DHT22;1721;51.238;9.562;2023-06-22T13:19:04;30.20;84.60
3416;DHT22;1721;51.238;9.562;2023-06-22T13:21:30;30.00;83.00
3416;DHT22;1721;51.238;9.562;2023-06-22T13:23:57;29.80;83.70
3416;DHT22;1721;51.238;9.562;2023-06-22T13:26:24;29.70;82.80
3416;DHT22;1721;51.238;9.562;2023-06-22T13:28:50;29.60;83.60
3416;DHT22;1721;51.238;9.562;2023-06-22T13:31:16;29.60;82.60
3416;DHT22;1721;51.238;9.562;2023-06-22T13:33:42;29.60;83.10
3416;DHT22;1721;51.238;9.562;2023-06-22T13:36:09;29.80;82.50
3416;DHT22;1721;51.238;9.562;2023-06-22T13:38:35;30.10;81.80
3416;DHT22;1721;51.238;9.562;2023-06-22T13:41:04;30.10;83.50
3416;DHT22;1721;51.238;9.562;2023-06-22T13:43:29;30.20;84.70
3416;DHT22;1721;51.238;9.562;2023-06-22T13:45:55;30.30;82.80
3416;DHT22;1721;51.238;9.562;2023-06-22T13:48:20;30.00;82.60
3416;DHT22;1721;51.238;9.562;2023-06-22T13:50:46;29.80;82.80
3416;DHT22;1721;51.238;9.562;2023-06-22T13:53:12;29.70;83.20
3416;DHT22;1721;51.238;9.562;2023-06-22T13:55:37;29.70;83.70
3416;DHT22;1721;51.238;9.562;2023-06-22T13:58:03;29.60;83.90
3416;DHT22;1721;51.238;9.562;2023-06-22T14:00:28;29.50;83.00
3416;DHT22;1721;51.238;9.562;2023-06-22T14:02:55;29.30;83.90
3416;DHT22;1721;51.238;9.562;2023-06-22T14:05:22;29.30;83.10
3416;DHT22;1721;51.238;9.562;2023-06-22T14:07:48;29.30;82.40
3416;DHT22;1721;51.238;9.562;2023-06-22T14:10:13;29.20;82.80
3416;DHT22;1721;51.238;9.562;2023-06-22T14:12:39;29.20;83.30
3416;DHT22;1721;51.238;9.562;2023-06-22T14:15:05;28.90;83.80
3416;DHT22;1721;51.238;9.562;2023-06-22T14:17:30;28.80;84.10
3416;DHT22;1721;51.238;9.562;2023-06-22T14:19:56;28.50;85.20
3416;DHT22;1721;51.238;9.562;2023-06-22T14:22:22;28.30;86.20
3416;DHT22;1721;51.238;9.562;2023-06-22T14:24:48;28.00;85.80
3416;DHT22;1721;51.238;9.562;2023-06-22T14:27:14;28.10;86.80
3416;DHT22;1721;51.238;9.562;2023-06-22T14:29:40;28.30;86.20
3416;DHT22;1721;51.238;9.562;2023-06-22T14:32:06;28.60;85.30
3416;DHT22;1721;51.238;9.562;2023-06-22T14:34:35;28.40;85.20
3416;DHT22;1721;51.238;9.562;2023-06-22T14:37:02;28.40;85.60
3416;DHT22;1721;51.238;9.562;2023-06-22T14:39:27;28.10;86.90
3416;DHT22;1721;51.238;9.562;2023-06-22T14:41:53;28.00;87.70
3416;DHT22;1721;51.238;9.562;2023-06-22T14:44:18;27.50;86.00
3416;DHT22;1721;51.238;9.562;2023-06-22T14:46:44;26.50;88.50
3416;DHT22;1721;51.238;9.562;2023-06-22T14:49:10;25.70;90.40
3416;DHT22;1721;51.238;9.562;2023-06-22T14:51:36;25.00;91.30
3416;DHT22;1721;51.238;9.562;2023-06-22T14:54:02;24.60;91.70
3416;DHT22;1721;51.238;9.562;2023-06-22T14:56:27;24.20;91.90
3416;DHT22;1721;51.238;9.562;2023-06-22T14:58:53;23.80;92.20
3416;DHT22;1721;51.238;9.562;2023-06-22T15:01:18;23.50;92.80
3416;DHT22;1721;51.238;9.562;2023-06-22T15:03:45;23.20;92.90
3416;DHT22;1721;51.238;9.562;2023-06-22T15:06:11;23.00;93.30
3416;DHT22;1721;51.238;9.562;2023-06-22T15:08:38;22.50;94.20
3416;DHT22;1721;51.238;9.562;2023-06-22T15:11:04;22.30;94.40
3416;DHT22;1721;51.238;9.562;2023-06-22T15:13:31;22.30;95.10
3416;DHT22;1721;51.238;9.562;2023-06-22T15:15:59;22.40;95.40
3416;DHT22;1721;51.238;9.562;2023-06-22T15:18:25;22.50;95.30
3416;DHT22;1721;51.238;9.562;2023-06-22T15:20:51;22.50;95.30
3416;DHT22;1721;51.238;9.562;2023-06-22T15:23:17;22.40;95.40
3416;DHT22;1721;51.238;9.562;2023-06-22T15:25:44;22.10;96.10
3416;DHT22;1721;51.238;9.562;2023-06-22T15:28:11;21.90;96.70
3416;DHT22;1721;51.238;9.562;2023-06-22T15:30:38;22.00;97.10
3416;DHT22;1721;51.238;9.562;2023-06-22T15:33:04;22.20;96.80
3416;DHT22;1721;51.238;9.562;2023-06-22T15:35:29;22.20;97.40
3416;DHT22;1721;51.238;9.562;2023-06-22T15:37:55;22.20;97.60
3416;DHT22;1721;51.238;9.562;2023-06-22T15:40:21;22.20;97.60
3416;DHT22;1721;51.238;9.562;2023-06-22T15:42:51;22.30;97.40
3416;DHT22;1721;51.238;9.562;2023-06-22T15:45:17;22.50;97.40
3416;DHT22;1721;51.238;9.562;2023-06-22T15:47:42;22.60;97.20
3416;DHT22;1721;51.238;9.562;2023-06-22T15:50:08;22.60;97.50
3416;DHT22;1721;51.238;9.562;2023-06-22T15:52:34;22.70;97.50
3416;DHT22;1721;51.238;9.562;2023-06-22T15:54:59;22.80;97.50
3416;DHT22;1721;51.238;9.562;2023-06-22T15:57:26;22.80;97.50
3416;DHT22;1721;51.238;9.562;2023-06-22T15:59:52;22.80;97.70
3416;DHT22;1721;51.238;9.562;2023-06-22T16:02:18;22.80;98.10
3416;DHT22;1721;51.238;9.562;2023-06-22T16:04:44;22.80;97.90